• Join FlightAware (Why Join?)
  • Login
  • US Flag 
03:02AM EDT


 

Airport Tracker/Info


-or-


 

Live Flight TrackerFlight Track Log ✈ JZA8813 ✈ 03-Nov-2013 ✈ CYQY - CYHZ

Flight Track Log - Related Links

Times and Time Zones

All times are in EST time to prevent confusion due to time zone crossing. See the JZA8813 flight status page for this flight to view local times or setup timezone preferences in your user account.

Time Position Orientation Groundspeed Altitude Reporting Facility
EST Latitude Longitude Course Direction KTS MPH feet Rate Location/Type
05:49PM 46.1500 -60.0167 243° Southwest 120 138 400  Level Moncton Center
05:50PM 46.1167 -60.0833 234° Southwest 130 150 1,700 1,020 Climbing Moncton Center
05:51PM 46.0833 -60.1333 226° Southwest 160 184 2,500 840 Climbing Moncton Center
05:52PM 46.0667 -60.1833 244° Southwest 170 196 3,400 960 Climbing Moncton Center
05:53PM 46.0044 -60.4910 243° Southwest  Level FlightAware Approximate
05:53PM 46.0333 -60.2500 234° Southwest 170 196 4,500  Level Moncton Center
05:54PM 45.9728 -60.5793 243° Southwest  Level FlightAware Approximate
05:54PM 46.0167 -60.3000 244° Southwest 170 196 5,800  Level Moncton Center
05:55PM 46.0000 -60.3667 250° West 170 196 6,000 60 Climbing Moncton Center
05:56PM 45.9667 -60.4500 240° Southwest 200 230 6,000  Level Moncton Center
05:57PM 45.9500 -60.5167 250° West 210 242 6,000  Level Moncton Center
05:58PM 45.9333 -60.6000 254° West 210 242 6,000  Level Moncton Center
05:59PM 45.9000 -60.6667 234° Southwest 220 253 6,000  Level Moncton Center
06:00PM 45.8667 -60.7500 240° Southwest 220 253 6,000  Level Moncton Center
06:01PM 45.8333 -60.8167 234° Southwest 210 242 6,000  Level Moncton Center
06:02PM 45.8167 -60.8833 250° West 210 242 6,000  Level Moncton Center
06:03PM 45.7833 -60.9833 244° Southwest 210 242 6,000  Level Moncton Center
06:04PM 45.7667 -61.0667 254° West 220 253 6,000  Level Moncton Center
06:05PM 45.7333 -61.1333 234° Southwest 220 253 6,000  Level Moncton Center
06:06PM 45.7167 -61.2167 254° West 210 242 6,000  Level Moncton Center
06:07PM 45.6833 -61.2833 234° Southwest 210 242 6,000  Level Moncton Center
06:08PM 45.6500 -61.3500 234° Southwest 210 242 6,000  Level Moncton Center
06:09PM 45.6167 -61.4333 240° Southwest 220 253 6,000  Level Moncton Center
06:10PM 45.6000 -61.5000 250° West 220 253 6,100  Climbing Moncton Center
06:11PM 45.5667 -61.5833 240° Southwest 210 242 6,100  Level Moncton Center
06:12PM 45.5333 -61.6667 240° Southwest 210 242 6,100  Level Moncton Center
06:13PM 45.5333 -61.7500 270° West 210 242 6,100  Level Moncton Center
06:14PM 45.5000 -61.8167 235° Southwest 210 242 6,100  Level Moncton Center
06:15PM 45.4667 -61.9000 240° Southwest 220 253 6,100  Level Moncton Center
06:16PM 45.4333 -61.9667 235° Southwest 220 253 6,100  Level Moncton Center
06:17PM 45.4167 -62.0333 250° West 220 253 6,100  Level Moncton Center
06:18PM 45.3833 -62.1333 245° Southwest 220 253 6,100  Level Moncton Center
06:19PM 45.3500 -62.2000 235° Southwest 220 253 6,100  Level Moncton Center
06:20PM 45.3167 -62.2833 240° Southwest 220 253 6,100  Level Moncton Center
06:21PM 45.2833 -62.3500 235° Southwest 220 253 6,100  Level Moncton Center
06:22PM 45.2667 -62.4167 250° West 220 253 6,100  Level Moncton Center
06:23PM 45.2333 -62.5000 240° Southwest 220 253 6,100  Level Moncton Center
06:24PM 45.2167 -62.5667 250° West 220 253 6,100  Level Moncton Center
06:25PM 45.1833 -62.6667 245° Southwest 220 253 6,100  Level Moncton Center
06:26PM 45.1667 -62.7333 250° West 220 253 6,100  Level Moncton Center
06:27PM 45.1333 -62.8167 240° Southwest 220 253 6,100  Level Moncton Center
06:28PM 45.1000 -62.8833 235° Southwest 220 253 6,100  Level Moncton Center
06:29PM 45.0667 -62.9500 235° Southwest 220 253 6,100  Level Moncton Center
06:30PM 45.0500 -63.0500 257° West 220 253 6,100  Level Moncton Center
06:31PM 45.0167 -63.1000 227° Southwest 220 253 6,100  Level Moncton Center
06:32PM 44.9667 -63.1667 223° Southwest 220 253 6,100 -420 Level Moncton Center
06:33PM 44.9167 -63.2333 223° Southwest 240 276 5,300 -1,080 Descending Moncton Center
06:34PM 44.8667 -63.3167 230° Southwest 260 299 4,000 -900 Descending Moncton Center
06:35PM 44.8167 -63.3667 215° Southwest 210 242 3,600 -240 Descending Moncton Center
06:36PM 44.7667 -63.4333 223° Southwest 210 242 3,600  Level Moncton Center
06:37PM 44.7333 -63.4833 227° Southwest 210 242 3,600 -60 Level Moncton Center
06:38PM 44.7167 -63.5500 251° West 200 230 3,500 -960 Descending Moncton Center
06:39PM 44.7500 -63.6000 313° West 170 196 1,700 -1,020 Descending Moncton Center
06:40PM 44.7833 -63.5667 35° Northeast 130 150 1,500 -120 Descending Moncton Center
06:41PM 44.8167 -63.5500 20° North 110 127 1,500 -300 Level Moncton Center
06:42PM 44.8333 -63.5167 55° Northeast 110 127 900 -540 Descending Moncton Center
06:43PM 44.8667 -63.5000 20° North 110 127 500 -240 Descending Moncton Center
06:44PM 44.8833 -63.4833 35° Northeast 110 127 500  Level Moncton Center